Nearby METAR Reports

 

KSFO - San Francisco, California, USA
Distance from station: NNW 8km
Updated: Tue, 17-Sep-2019 7:56pm PDT
Few Clouds
Few Clouds
 Wind from W
Wind: W 20 mph , 31 km/h
Temperature: 64°F , 18°C
Dew Point: 55°F , 13°C
Humidity: 73%
Barometer: 29.99 inHg , 1015.6 hPa
Clouds: Few Clouds
Visibility: 10 miles , 16 km
Cloud details: Few Clouds 1500 ft
2019/09/18 02:56 KSFO 180256Z 26017KT 10SM FEW015 18/13 A2999 RMK AO2 SLP154 T01780133 56009
KSQL - San Carlos Airpo, California, USA
Distance from station: ESE 8km
Updated: Tue, 17-Sep-2019 8:47pm PDT
Clear
Clear
 Wind from WSW
Wind: WSW 7 mph , 11 km/h
Temperature: 64°F , 18°C
Dew Point: 55°F , 13°C
Humidity: 73%
Barometer: 30.01 inHg , 1016.3 hPa
Clouds: Clear
Visibility: 10 miles , 16 km
2019/09/18 03:47 KSQL 180347Z 24006KT 10SM SKC 18/13 A3001
 
KHAF - Half Moon Bay, California, USA
Distance from station: WSW 15km
Updated: Tue, 17-Sep-2019 8:55pm PDT
Clear
Clear
 Wind from NNW
Wind: NNW 3 mph , 6 km/h
Temperature: 61°F , 16°C
Dew Point: 57°F , 14°C
Humidity: 88%
Barometer: 30.02 inHg , 1016.6 hPa
Clouds: Clear
Visibility: 10 miles , 16 km
2019/09/18 03:55 KHAF 180355Z AUTO 33003KT 10SM CLR 16/14 A3002 RMK AO2
KOAK - Oakland, California, USA
Distance from station: NNE 21km
Updated: Tue, 17-Sep-2019 8:53pm PDT
Few Clouds
Few Clouds
 Wind from WNW
Wind: WNW 15 mph , 24 km/h
Temperature: 66°F , 19°C
Dew Point: 57°F , 14°C
Humidity: 73%
Barometer: 30.00 inHg , 1015.9 hPa
Clouds: Few Clouds
Visibility: 10 miles , 16 km
Cloud details: Few Clouds 1300 ft
2019/09/18 03:53 KOAK 180353Z 29013KT 10SM FEW013 19/14 A3000 RMK AO2 SLP159 T01890139
 
KPAO - Palo Alto, California, USA
Distance from station: ESE 21km
Updated: Tue, 17-Sep-2019 7:47pm PDT
Clear
Clear
 Wind from W
Wind: W 6 mph , 9 km/h
Temperature: 64°F , 18°C
Dew Point: 54°F , 12°C
Humidity: 68%
Barometer: 30.00 inHg , 1015.9 hPa
Clouds: Clear
Visibility: 10 miles , 16 km
2019/09/18 02:47 KPAO 180247Z 28005KT 10SM SKC 18/12 A3000
KHWD - Hayward, California, USA
Distance from station: NE 23km
Updated: Tue, 17-Sep-2019 8:54pm PDT
Clear
Clear
 Wind from W
Wind: W 12 mph , 19 km/h
Temperature: 64°F , 18°C
Dew Point: 57°F , 14°C
Humidity: 78%
Barometer: 30.00 inHg , 1015.9 hPa
Clouds: Clear
Visibility: 10 miles , 16 km
2019/09/18 03:54 KHWD 180354Z 28010KT 10SM CLR 18/14 A3000 RMK AO2 SLP169 T01780139 PNO
 
KNUQ - Moffett Nas/Mtn, California, USA
Distance from station: ESE 30km
Updated: Tue, 17-Sep-2019 7:56pm PDT

 
Barometer: 30.00 inHg , 1015.9 hPa
2019/09/18 02:56 KNUQ 180256Z A3000 RMK AO2 SLP163 54000 PWINO $
KSJC - San Jose, California, USA
Distance from station: ESE 42km
Updated: Tue, 17-Sep-2019 8:53pm PDT
Few Clouds
Few Clouds
 Wind from N
Wind: N 10 mph , 17 km/h
Temperature: 64°F , 18°C
Dew Point: 55°F , 13°C
Humidity: 73%
Barometer: 30.01 inHg , 1016.3 hPa
Clouds: Few Clouds
Visibility: 10 miles , 16 km
Cloud details: Few Clouds 1100 ft
2019/09/18 03:53 KSJC 180353Z 35009KT 10SM FEW011 18/13 A3001 RMK AO2 SLP161 T01830133
 
KLVK - Livermore, California, USA
Distance from station: ENE 49km
Updated: Tue, 17-Sep-2019 8:53pm PDT
Clear
Clear
 Wind from WSW
Wind: WSW 8 mph , 13 km/h
Temperature: 63°F , 17°C
Dew Point: 54°F , 12°C
Humidity: 73%
Barometer: 30.00 inHg , 1015.9 hPa
Clouds: Clear
Visibility: 10 miles , 16 km
2019/09/18 03:53 KLVK 180353Z 25007KT 10SM CLR 17/12 A3000 RMK AO2 SLP155 T01720122
KRHV - San Jose/Reid, California, USA
Distance from station: ESE 53km
Updated: Tue, 17-Sep-2019 7:47pm PDT
Clear
Clear
 Wind from NNW
Wind: NNW 14 mph , 22 km/h
Temperature: 66°F , 19°C
Dew Point: 54°F , 12°C
Humidity: 64%
Barometer: 30.01 inHg , 1016.3 hPa
Clouds: Clear
Visibility: 10 miles , 16 km
2019/09/18 02:47 KRHV 180247Z 33012KT 10SM SKC 19/12 A3001
 
KCCR - Concord, California, USA
Distance from station: NNE 56km
Updated: Tue, 17-Sep-2019 8:53pm PDT
Clear
Clear
 Wind from W
Wind: W 10 mph , 17 km/h
Temperature: 66°F , 19°C
Dew Point: 54°F , 12°C
Humidity: 64%
Barometer: 29.98 inHg , 1015.2 hPa
Clouds: Clear
Visibility: 10 miles , 16 km
2019/09/18 03:53 KCCR 180353Z 26009KT 10SM CLR 19/12 A2998 RMK AO2 SLP139 T01940117
KDVO - Novato/Gnoss Fld, California, USA
Distance from station: NNW 70km
Updated: Tue, 17-Sep-2019 8:35pm PDT
Clear
Clear
 Wind from varies
Wind: varies 6 mph , 9 km/h, Gust: 14 mph , 22 km/h
Temperature: 64°F , 18°C
Dew Point: 57°F , 14°C
Humidity: 78%
Barometer: 29.98 inHg , 1015.2 hPa
Clouds: Clear
Visibility: 10 miles , 16 km
2019/09/18 03:35 KDVO 180335Z AUTO VRB05G12KT 10SM CLR 18/14 A2998 RMK AO2
 
KAPC - Napa, California, USA
Distance from station: N 73km
Updated: Tue, 17-Sep-2019 8:54pm PDT
Clear
Clear
 Wind from W
Wind: W 10 mph , 17 km/h
Temperature: 63°F , 17°C
Dew Point: 59°F , 15°C
Humidity: 88%
Barometer: 29.98 inHg , 1015.2 hPa
Clouds: Clear
Visibility: 10 miles , 16 km
2019/09/18 03:54 KAPC 180354Z AUTO 28009KT 10SM CLR 17/15 A2998 RMK AO2 SLP142 T01720150